Hope Airport
CYHE : now visible

Airfield :











YOU CAN JOIN US ON...

 
LOGIN :

Register | Disclaimer

   EN    FR    IT 

 









Legend :    VFR   Marginal VFR   IFR   Intensive IFR   Very Intensive IFR
Visi :
Ceiling :
>= 8 km
>= 3000ft
5 to 8 km
1000 to 3000 ft
1500m to 5 km
500 to 1000 ft
800 to 1500m
200 to 500 ft
< 800m
< 200 ft
Symbols :   Thunderstorms  Fog  Heavy snow  Heavy precipitations  Wind > 20 kt






- Airport Elevation : 128 ft
- IATA code : YHE


CYHE - Hope

CURRENT METAR :
  • 311128Z AUTO 28009KT 9SM -RA OVC030 11/09 A2991 RMK SLP131

EXPIRED METARs :
  • 311100Z AUTO 30008G15KT 260V020 9SM OVC032 11/09 A2990 RMK SLP129
  • 311000Z AUTO 30007KT 270V350 9SM BKN030 OVC041 11/10 A2988 RMK SLP121
  • 310941Z AUTO VRB05KT 9SM BKN028 BKN041 OVC055 11/10 A2989 RMK SLP123
  • 310900Z AUTO 30007G15KT 260V360 8SM -RA BKN030 OVC037 11/10 A2988 RMK SLP120

TAF N/A
CZVR FIR / North America



MET'MAP, your aeronautical weather chart ! - Copyright ORBIFLY December 2007 - Disclaimer

ORBIFLY MET'MAP TEAM :

Programming & Development : Alexandra Zaïnal
Concept & original design : Baudouin d'Aumeries
Assistance for programming : Marc-Olivier Méhu
Technical & hardware support : Manuel Goepfert

Contact : metmap@orbifly.com




SOURCES & CREDITS :

   NOAA       Earth
Advisory